sensor_id;sensor_type;location;lat;lon;timestamp;P1;durP1;ratioP1;P2;durP2;ratioP2
73852;SDS011;62191;51.548;5.688;2022-12-18T00:01:17;107.57;;;103.07;;
73852;SDS011;62191;51.548;5.688;2022-12-18T00:03:54;113.63;;;108.50;;
73852;SDS011;62191;51.548;5.688;2022-12-18T00:06:22;113.10;;;107.97;;
73852;SDS011;62191;51.548;5.688;2022-12-18T00:08:50;110.97;;;106.27;;
73852;SDS011;62191;51.548;5.688;2022-12-18T00:11:19;105.67;;;100.90;;
73852;SDS011;62191;51.548;5.688;2022-12-18T00:13:48;107.47;;;102.17;;
73852;SDS011;62191;51.548;5.688;2022-12-18T00:16:16;107.00;;;101.40;;
73852;SDS011;62191;51.548;5.688;2022-12-18T00:18:46;113.90;;;108.20;;
73852;SDS011;62191;51.548;5.688;2022-12-18T00:21:15;107.53;;;102.37;;
73852;SDS011;62191;51.548;5.688;2022-12-18T00:23:43;113.70;;;108.17;;
73852;SDS011;62191;51.548;5.688;2022-12-18T00:26:24;100.43;;;95.93;;
73852;SDS011;62191;51.548;5.688;2022-12-18T00:28:53;104.30;;;99.43;;
73852;SDS011;62191;51.548;5.688;2022-12-18T00:31:23;103.73;;;98.37;;
73852;SDS011;62191;51.548;5.688;2022-12-18T00:33:51;105.80;;;101.10;;
73852;SDS011;62191;51.548;5.688;2022-12-18T00:36:29;111.90;;;106.50;;
73852;SDS011;62191;51.548;5.688;2022-12-18T00:38:53;111.07;;;106.33;;
73852;SDS011;62191;51.548;5.688;2022-12-18T00:41:22;108.90;;;103.73;;
73852;SDS011;62191;51.548;5.688;2022-12-18T00:44:09;108.63;;;103.97;;
73852;SDS011;62191;51.548;5.688;2022-12-18T00:46:37;110.57;;;104.87;;
73852;SDS011;62191;51.548;5.688;2022-12-18T00:49:05;112.77;;;107.37;;
73852;SDS011;62191;51.548;5.688;2022-12-18T00:51:33;108.10;;;103.07;;
73852;SDS011;62191;51.548;5.688;2022-12-18T00:54:00;107.60;;;102.97;;
73852;SDS011;62191;51.548;5.688;2022-12-18T00:56:27;107.00;;;102.17;;
73852;SDS011;62191;51.548;5.688;2022-12-18T00:58:55;104.60;;;100.37;;
73852;SDS011;62191;51.548;5.688;2022-12-18T01:01:22;105.50;;;100.77;;
73852;SDS011;62191;51.548;5.688;2022-12-18T01:03:49;103.80;;;98.97;;
73852;SDS011;62191;51.548;5.688;2022-12-18T01:06:17;102.73;;;98.07;;
73852;SDS011;62191;51.548;5.688;2022-12-18T01:08:44;113.73;;;107.70;;
73852;SDS011;62191;51.548;5.688;2022-12-18T01:11:14;99.53;;;94.90;;
73852;SDS011;62191;51.548;5.688;2022-12-18T01:13:43;105.60;;;100.57;;
73852;SDS011;62191;51.548;5.688;2022-12-18T01:16:12;109.47;;;104.23;;
73852;SDS011;62191;51.548;5.688;2022-12-18T01:18:42;108.93;;;104.20;;
73852;SDS011;62191;51.548;5.688;2022-12-18T01:21:11;115.80;;;110.73;;
73852;SDS011;62191;51.548;5.688;2022-12-18T01:23:50;106.13;;;101.47;;
73852;SDS011;62191;51.548;5.688;2022-12-18T01:26:15;113.53;;;108.20;;
73852;SDS011;62191;51.548;5.688;2022-12-18T01:28:43;109.07;;;104.27;;
73852;SDS011;62191;51.548;5.688;2022-12-18T01:31:11;103.13;;;98.50;;
73852;SDS011;62191;51.548;5.688;2022-12-18T01:33:50;103.77;;;99.17;;
73852;SDS011;62191;51.548;5.688;2022-12-18T01:36:29;103.93;;;99.50;;
73852;SDS011;62191;51.548;5.688;2022-12-18T01:38:59;102.47;;;97.57;;
73852;SDS011;62191;51.548;5.688;2022-12-18T01:41:29;105.80;;;100.30;;
73852;SDS011;62191;51.548;5.688;2022-12-18T01:43:59;106.17;;;101.57;;
73852;SDS011;62191;51.548;5.688;2022-12-18T01:46:28;111.10;;;105.67;;
73852;SDS011;62191;51.548;5.688;2022-12-18T01:48:59;113.73;;;108.63;;
73852;SDS011;62191;51.548;5.688;2022-12-18T01:51:27;103.37;;;98.80;;
73852;SDS011;62191;51.548;5.688;2022-12-18T01:53:56;108.33;;;102.70;;
73852;SDS011;62191;51.548;5.688;2022-12-18T01:56:24;105.50;;;100.63;;
73852;SDS011;62191;51.548;5.688;2022-12-18T01:58:53;106.73;;;101.70;;
73852;SDS011;62191;51.548;5.688;2022-12-18T02:01:22;105.90;;;100.77;;
73852;SDS011;62191;51.548;5.688;2022-12-18T02:03:50;101.33;;;96.93;;
73852;SDS011;62191;51.548;5.688;2022-12-18T02:06:28;97.43;;;92.47;;
73852;SDS011;62191;51.548;5.688;2022-12-18T02:09:00;98.97;;;94.17;;
73852;SDS011;62191;51.548;5.688;2022-12-18T02:11:49;104.50;;;99.10;;
73852;SDS011;62191;51.548;5.688;2022-12-18T02:14:17;101.40;;;96.70;;
73852;SDS011;62191;51.548;5.688;2022-12-18T02:16:59;102.30;;;97.70;;
73852;SDS011;62191;51.548;5.688;2022-12-18T02:19:37;110.23;;;105.53;;
73852;SDS011;62191;51.548;5.688;2022-12-18T02:22:24;97.40;;;93.30;;
73852;SDS011;62191;51.548;5.688;2022-12-18T02:25:25;99.23;;;94.17;;
73852;SDS011;62191;51.548;5.688;2022-12-18T02:27:54;95.47;;;91.33;;
73852;SDS011;62191;51.548;5.688;2022-12-18T02:30:24;101.00;;;96.87;;
73852;SDS011;62191;51.548;5.688;2022-12-18T02:32:53;105.70;;;101.10;;
73852;SDS011;62191;51.548;5.688;2022-12-18T02:35:27;107.43;;;102.93;;
73852;SDS011;62191;51.548;5.688;2022-12-18T02:37:53;107.17;;;102.13;;
73852;SDS011;62191;51.548;5.688;2022-12-18T02:40:23;101.57;;;97.20;;
73852;SDS011;62191;51.548;5.688;2022-12-18T02:42:51;101.73;;;97.47;;
73852;SDS011;62191;51.548;5.688;2022-12-18T02:45:19;104.10;;;99.30;;
73852;SDS011;62191;51.548;5.688;2022-12-18T02:47:48;104.53;;;99.97;;
73852;SDS011;62191;51.548;5.688;2022-12-18T02:50:26;102.70;;;98.50;;
73852;SDS011;62191;51.548;5.688;2022-12-18T02:55:51;92.60;;;88.90;;
73852;SDS011;62191;51.548;5.688;2022-12-18T02:58:29;98.07;;;93.90;;
73852;SDS011;62191;51.548;5.688;2022-12-18T03:01:10;83.42;;;79.87;;
73852;SDS011;62191;51.548;5.688;2022-12-18T03:03:58;90.00;;;85.80;;
73852;SDS011;62191;51.548;5.688;2022-12-18T03:06:27;97.93;;;93.67;;
73852;SDS011;62191;51.548;5.688;2022-12-18T03:08:58;94.67;;;90.17;;
73852;SDS011;62191;51.548;5.688;2022-12-18T03:11:30;99.67;;;95.23;;
73852;SDS011;62191;51.548;5.688;2022-12-18T03:14:17;98.77;;;94.30;;
73852;SDS011;62191;51.548;5.688;2022-12-18T03:16:48;96.90;;;92.93;;
73852;SDS011;62191;51.548;5.688;2022-12-18T03:19:16;104.30;;;99.30;;
73852;SDS011;62191;51.548;5.688;2022-12-18T03:21:47;89.90;;;86.10;;
73852;SDS011;62191;51.548;5.688;2022-12-18T03:24:19;91.15;;;87.02;;
73852;SDS011;62191;51.548;5.688;2022-12-18T03:26:50;97.27;;;92.80;;
73852;SDS011;62191;51.548;5.688;2022-12-18T03:29:24;101.23;;;96.67;;
73852;SDS011;62191;51.548;5.688;2022-12-18T03:31:54;102.43;;;97.87;;
73852;SDS011;62191;51.548;5.688;2022-12-18T03:34:23;99.03;;;94.90;;
73852;SDS011;62191;51.548;5.688;2022-12-18T03:36:52;99.60;;;95.53;;
73852;SDS011;62191;51.548;5.688;2022-12-18T03:39:19;103.00;;;98.73;;
73852;SDS011;62191;51.548;5.688;2022-12-18T03:41:49;102.90;;;98.60;;
73852;SDS011;62191;51.548;5.688;2022-12-18T03:49:56;89.60;;;85.73;;
73852;SDS011;62191;51.548;5.688;2022-12-18T03:52:29;93.70;;;89.47;;
73852;SDS011;62191;51.548;5.688;2022-12-18T03:54:57;96.93;;;92.87;;
73852;SDS011;62191;51.548;5.688;2022-12-18T03:57:26;98.17;;;94.17;;
73852;SDS011;62191;51.548;5.688;2022-12-18T03:59:56;89.43;;;85.23;;
73852;SDS011;62191;51.548;5.688;2022-12-18T04:02:25;102.13;;;97.77;;
73852;SDS011;62191;51.548;5.688;2022-12-18T04:04:56;97.43;;;93.30;;
73852;SDS011;62191;51.548;5.688;2022-12-18T04:07:24;93.30;;;89.40;;
73852;SDS011;62191;51.548;5.688;2022-12-18T04:09:52;102.10;;;97.33;;
73852;SDS011;62191;51.548;5.688;2022-12-18T04:12:26;96.67;;;92.30;;
73852;SDS011;62191;51.548;5.688;2022-12-18T04:14:54;95.03;;;90.90;;
73852;SDS011;62191;51.548;5.688;2022-12-18T04:17:22;103.20;;;98.67;;
73852;SDS011;62191;51.548;5.688;2022-12-18T04:19:50;100.67;;;96.27;;
73852;SDS011;62191;51.548;5.688;2022-12-18T04:22:17;98.60;;;94.73;;
73852;SDS011;62191;51.548;5.688;2022-12-18T04:24:44;98.17;;;94.10;;
73852;SDS011;62191;51.548;5.688;2022-12-18T04:27:11;103.70;;;99.30;;
73852;SDS011;62191;51.548;5.688;2022-12-18T04:29:39;98.60;;;94.60;;
73852;SDS011;62191;51.548;5.688;2022-12-18T04:32:07;94.10;;;90.20;;
73852;SDS011;62191;51.548;5.688;2022-12-18T04:34:34;93.93;;;90.17;;
73852;SDS011;62191;51.548;5.688;2022-12-18T04:37:02;103.10;;;98.83;;
73852;SDS011;62191;51.548;5.688;2022-12-18T04:39:29;102.27;;;97.87;;
73852;SDS011;62191;51.548;5.688;2022-12-18T04:42:00;99.93;;;95.83;;
73852;SDS011;62191;51.548;5.688;2022-12-18T04:44:27;100.90;;;96.47;;
73852;SDS011;62191;51.548;5.688;2022-12-18T04:46:54;97.80;;;93.70;;
73852;SDS011;62191;51.548;5.688;2022-12-18T04:49:22;100.63;;;96.03;;
73852;SDS011;62191;51.548;5.688;2022-12-18T04:51:49;101.93;;;97.60;;
73852;SDS011;62191;51.548;5.688;2022-12-18T04:54:21;101.93;;;96.97;;
73852;SDS011;62191;51.548;5.688;2022-12-18T04:56:48;93.43;;;89.43;;
73852;SDS011;62191;51.548;5.688;2022-12-18T04:59:16;96.87;;;92.63;;
73852;SDS011;62191;51.548;5.688;2022-12-18T05:01:43;94.83;;;90.73;;
73852;SDS011;62191;51.548;5.688;2022-12-18T05:04:11;94.33;;;90.03;;
73852;SDS011;62191;51.548;5.688;2022-12-18T05:06:38;101.63;;;97.00;;
73852;SDS011;62191;51.548;5.688;2022-12-18T05:09:05;102.33;;;98.17;;
73852;SDS011;62191;51.548;5.688;2022-12-18T05:11:36;98.73;;;94.80;;
73852;SDS011;62191;51.548;5.688;2022-12-18T05:14:03;104.67;;;99.43;;
73852;SDS011;62191;51.548;5.688;2022-12-18T05:16:30;103.67;;;99.03;;
73852;SDS011;62191;51.548;5.688;2022-12-18T05:18:58;103.37;;;99.23;;
73852;SDS011;62191;51.548;5.688;2022-12-18T05:21:25;101.97;;;97.77;;
73852;SDS011;62191;51.548;5.688;2022-12-18T05:23:52;96.93;;;93.07;;
73852;SDS011;62191;51.548;5.688;2022-12-18T05:26:20;97.47;;;93.53;;
73852;SDS011;62191;51.548;5.688;2022-12-18T05:28:47;91.00;;;87.13;;
73852;SDS011;62191;51.548;5.688;2022-12-18T05:31:14;92.80;;;88.73;;
73852;SDS011;62191;51.548;5.688;2022-12-18T05:33:42;95.23;;;91.33;;
73852;SDS011;62191;51.548;5.688;2022-12-18T05:36:09;100.17;;;95.83;;
73852;SDS011;62191;51.548;5.688;2022-12-18T05:38:38;100.33;;;96.23;;
73852;SDS011;62191;51.548;5.688;2022-12-18T05:41:06;102.23;;;97.83;;
73852;SDS011;62191;51.548;5.688;2022-12-18T05:43:34;97.63;;;93.83;;
73852;SDS011;62191;51.548;5.688;2022-12-18T05:46:03;98.23;;;94.23;;
73852;SDS011;62191;51.548;5.688;2022-12-18T05:48:32;100.77;;;96.73;;
73852;SDS011;62191;51.548;5.688;2022-12-18T05:51:06;99.47;;;95.37;;
73852;SDS011;62191;51.548;5.688;2022-12-18T05:53:38;101.70;;;97.00;;
73852;SDS011;62191;51.548;5.688;2022-12-18T05:56:06;99.97;;;95.83;;
73852;SDS011;62191;51.548;5.688;2022-12-18T05:58:35;95.50;;;91.03;;
73852;SDS011;62191;51.548;5.688;2022-12-18T06:01:11;98.60;;;94.70;;
73852;SDS011;62191;51.548;5.688;2022-12-18T06:03:35;101.00;;;96.67;;
73852;SDS011;62191;51.548;5.688;2022-12-18T06:06:03;140.70;;;135.23;;
73852;SDS011;62191;51.548;5.688;2022-12-18T06:08:30;96.53;;;92.83;;
73852;SDS011;62191;51.548;5.688;2022-12-18T06:10:58;97.00;;;92.93;;
73852;SDS011;62191;51.548;5.688;2022-12-18T06:13:25;100.23;;;96.23;;
73852;SDS011;62191;51.548;5.688;2022-12-18T06:15:52;104.60;;;100.60;;
73852;SDS011;62191;51.548;5.688;2022-12-18T06:18:19;102.07;;;97.43;;
73852;SDS011;62191;51.548;5.688;2022-12-18T06:20:54;101.57;;;97.37;;
73852;SDS011;62191;51.548;5.688;2022-12-18T06:23:25;104.60;;;100.33;;
73852;SDS011;62191;51.548;5.688;2022-12-18T06:25:52;97.30;;;92.80;;
73852;SDS011;62191;51.548;5.688;2022-12-18T06:28:20;102.40;;;97.50;;
73852;SDS011;62191;51.548;5.688;2022-12-18T06:30:47;99.10;;;94.80;;
73852;SDS011;62191;51.548;5.688;2022-12-18T06:33:15;103.23;;;99.00;;
73852;SDS011;62191;51.548;5.688;2022-12-18T06:35:43;93.17;;;89.43;;
73852;SDS011;62191;51.548;5.688;2022-12-18T06:38:10;95.17;;;91.23;;
73852;SDS011;62191;51.548;5.688;2022-12-18T06:40:38;102.57;;;98.23;;
73852;SDS011;62191;51.548;5.688;2022-12-18T06:43:05;95.53;;;91.57;;
73852;SDS011;62191;51.548;5.688;2022-12-18T06:45:33;100.23;;;96.13;;
73852;SDS011;62191;51.548;5.688;2022-12-18T06:48:01;101.30;;;96.97;;
73852;SDS011;62191;51.548;5.688;2022-12-18T06:50:28;94.10;;;90.27;;
73852;SDS011;62191;51.548;5.688;2022-12-18T06:52:55;101.30;;;97.00;;
73852;SDS011;62191;51.548;5.688;2022-12-18T06:55:23;97.40;;;93.43;;
73852;SDS011;62191;51.548;5.688;2022-12-18T06:57:50;98.43;;;94.23;;
73852;SDS011;62191;51.548;5.688;2022-12-18T07:00:18;95.43;;;91.63;;
73852;SDS011;62191;51.548;5.688;2022-12-18T07:02:45;92.73;;;88.67;;
73852;SDS011;62191;51.548;5.688;2022-12-18T07:05:12;99.73;;;95.53;;
73852;SDS011;62191;51.548;5.688;2022-12-18T07:07:40;97.37;;;93.47;;
73852;SDS011;62191;51.548;5.688;2022-12-18T07:10:07;103.27;;;98.97;;
73852;SDS011;62191;51.548;5.688;2022-12-18T07:12:35;99.37;;;94.97;;
73852;SDS011;62191;51.548;5.688;2022-12-18T07:15:02;102.27;;;98.17;;
73852;SDS011;62191;51.548;5.688;2022-12-18T07:17:30;98.93;;;94.67;;
73852;SDS011;62191;51.548;5.688;2022-12-18T07:19:57;94.93;;;90.87;;
73852;SDS011;62191;51.548;5.688;2022-12-18T07:22:25;92.30;;;88.40;;
73852;SDS011;62191;51.548;5.688;2022-12-18T07:24:52;105.23;;;100.73;;
73852;SDS011;62191;51.548;5.688;2022-12-18T07:27:20;99.53;;;95.53;;
73852;SDS011;62191;51.548;5.688;2022-12-18T07:29:48;98.70;;;94.53;;
73852;SDS011;62191;51.548;5.688;2022-12-18T07:32:17;102.03;;;97.87;;
73852;SDS011;62191;51.548;5.688;2022-12-18T07:34:44;104.37;;;99.13;;
73852;SDS011;62191;51.548;5.688;2022-12-18T07:37:12;99.87;;;95.60;;
73852;SDS011;62191;51.548;5.688;2022-12-18T07:39:39;98.07;;;94.07;;
73852;SDS011;62191;51.548;5.688;2022-12-18T07:42:09;98.77;;;94.23;;
73852;SDS011;62191;51.548;5.688;2022-12-18T07:44:54;101.30;;;97.20;;
73852;SDS011;62191;51.548;5.688;2022-12-18T07:47:22;95.23;;;91.40;;
73852;SDS011;62191;51.548;5.688;2022-12-18T07:49:49;137.23;;;131.20;;
73852;SDS011;62191;51.548;5.688;2022-12-18T07:52:17;100.37;;;96.07;;
73852;SDS011;62191;51.548;5.688;2022-12-18T07:54:44;99.47;;;95.30;;
73852;SDS011;62191;51.548;5.688;2022-12-18T07:57:16;92.33;;;88.70;;
73852;SDS011;62191;51.548;5.688;2022-12-18T07:59:43;100.30;;;96.03;;
73852;SDS011;62191;51.548;5.688;2022-12-18T08:02:11;101.87;;;97.63;;
73852;SDS011;62191;51.548;5.688;2022-12-18T08:04:38;94.63;;;90.73;;
73852;SDS011;62191;51.548;5.688;2022-12-18T08:07:06;103.47;;;99.37;;
73852;SDS011;62191;51.548;5.688;2022-12-18T08:09:33;101.60;;;97.10;;
73852;SDS011;62191;51.548;5.688;2022-12-18T08:12:00;104.67;;;100.33;;
73852;SDS011;62191;51.548;5.688;2022-12-18T08:14:27;100.50;;;96.50;;
73852;SDS011;62191;51.548;5.688;2022-12-18T08:16:55;99.40;;;95.23;;
73852;SDS011;62191;51.548;5.688;2022-12-18T08:19:22;95.67;;;91.80;;
73852;SDS011;62191;51.548;5.688;2022-12-18T08:21:49;101.47;;;97.07;;
73852;SDS011;62191;51.548;5.688;2022-12-18T08:24:17;108.33;;;103.87;;
73852;SDS011;62191;51.548;5.688;2022-12-18T08:26:44;101.53;;;97.30;;
73852;SDS011;62191;51.548;5.688;2022-12-18T08:29:12;94.33;;;90.60;;
73852;SDS011;62191;51.548;5.688;2022-12-18T08:31:39;94.77;;;91.00;;
73852;SDS011;62191;51.548;5.688;2022-12-18T08:34:07;92.50;;;88.55;;
73852;SDS011;62191;51.548;5.688;2022-12-18T08:36:34;92.73;;;88.93;;
73852;SDS011;62191;51.548;5.688;2022-12-18T08:39:02;107.30;;;102.80;;
73852;SDS011;62191;51.548;5.688;2022-12-18T08:41:29;104.57;;;100.20;;
73852;SDS011;62191;51.548;5.688;2022-12-18T08:43:56;98.33;;;93.97;;
73852;SDS011;62191;51.548;5.688;2022-12-18T08:46:42;108.27;;;103.75;;
73852;SDS011;62191;51.548;5.688;2022-12-18T08:49:10;111.27;;;106.20;;
73852;SDS011;62191;51.548;5.688;2022-12-18T08:51:40;97.77;;;93.30;;
73852;SDS011;62191;51.548;5.688;2022-12-18T08:54:11;109.73;;;104.67;;
73852;SDS011;62191;51.548;5.688;2022-12-18T08:56:40;102.53;;;98.03;;
73852;SDS011;62191;51.548;5.688;2022-12-18T08:59:08;102.37;;;97.77;;
73852;SDS011;62191;51.548;5.688;2022-12-18T09:01:37;105.83;;;101.27;;
73852;SDS011;62191;51.548;5.688;2022-12-18T09:04:04;105.80;;;101.30;;
73852;SDS011;62191;51.548;5.688;2022-12-18T09:06:31;105.37;;;101.10;;
73852;SDS011;62191;51.548;5.688;2022-12-18T09:08:58;246.10;;;235.77;;
73852;SDS011;62191;51.548;5.688;2022-12-18T09:11:26;131.77;;;125.93;;
73852;SDS011;62191;51.548;5.688;2022-12-18T09:13:55;106.17;;;101.13;;
73852;SDS011;62191;51.548;5.688;2022-12-18T09:16:25;109.30;;;104.77;;
73852;SDS011;62191;51.548;5.688;2022-12-18T09:18:58;109.27;;;104.67;;
73852;SDS011;62191;51.548;5.688;2022-12-18T09:21:28;99.53;;;95.50;;
73852;SDS011;62191;51.548;5.688;2022-12-18T09:23:57;114.33;;;109.23;;
73852;SDS011;62191;51.548;5.688;2022-12-18T09:26:26;120.77;;;115.70;;
73852;SDS011;62191;51.548;5.688;2022-12-18T09:28:53;131.50;;;126.17;;
73852;SDS011;62191;51.548;5.688;2022-12-18T09:31:22;122.27;;;117.13;;
73852;SDS011;62191;51.548;5.688;2022-12-18T09:33:50;126.80;;;120.73;;
73852;SDS011;62191;51.548;5.688;2022-12-18T09:36:18;130.00;;;124.73;;
73852;SDS011;62191;51.548;5.688;2022-12-18T09:38:45;128.50;;;122.90;;
73852;SDS011;62191;51.548;5.688;2022-12-18T09:44:00;123.30;;;118.17;;
73852;SDS011;62191;51.548;5.688;2022-12-18T09:49:22;130.83;;;125.47;;
73852;SDS011;62191;51.548;5.688;2022-12-18T09:51:52;146.17;;;139.83;;
73852;SDS011;62191;51.548;5.688;2022-12-18T09:54:25;148.00;;;141.90;;
73852;SDS011;62191;51.548;5.688;2022-12-18T09:56:54;143.73;;;137.93;;
73852;SDS011;62191;51.548;5.688;2022-12-18T09:59:26;142.30;;;136.07;;
73852;SDS011;62191;51.548;5.688;2022-12-18T10:01:55;147.50;;;141.30;;
73852;SDS011;62191;51.548;5.688;2022-12-18T10:04:23;155.07;;;148.70;;
73852;SDS011;62191;51.548;5.688;2022-12-18T10:06:55;149.53;;;143.47;;
73852;SDS011;62191;51.548;5.688;2022-12-18T10:09:34;160.40;;;153.90;;
73852;SDS011;62191;51.548;5.688;2022-12-18T10:14:45;146.30;;;140.03;;
73852;SDS011;62191;51.548;5.688;2022-12-18T10:28:20;154.17;;;147.70;;
73852;SDS011;62191;51.548;5.688;2022-12-18T10:30:48;148.77;;;142.47;;
73852;SDS011;62191;51.548;5.688;2022-12-18T10:33:22;140.33;;;134.50;;
73852;SDS011;62191;51.548;5.688;2022-12-18T10:35:48;152.33;;;145.93;;
73852;SDS011;62191;51.548;5.688;2022-12-18T10:43:29;149.80;;;143.83;;
73852;SDS011;62191;51.548;5.688;2022-12-18T10:45:59;137.13;;;131.17;;
73852;SDS011;62191;51.548;5.688;2022-12-18T10:48:57;137.73;;;132.13;;
73852;SDS011;62191;51.548;5.688;2022-12-18T10:51:08;141.30;;;135.53;;
73852;SDS011;62191;51.548;5.688;2022-12-18T10:53:36;145.33;;;138.90;;
73852;SDS011;62191;51.548;5.688;2022-12-18T10:56:04;137.97;;;131.87;;
73852;SDS011;62191;51.548;5.688;2022-12-18T10:58:36;135.57;;;129.93;;
73852;SDS011;62191;51.548;5.688;2022-12-18T11:03:44;227.73;;;218.03;;
73852;SDS011;62191;51.548;5.688;2022-12-18T11:06:13;133.57;;;128.30;;
73852;SDS011;62191;51.548;5.688;2022-12-18T11:09:00;120.00;;;115.00;;
73852;SDS011;62191;51.548;5.688;2022-12-18T11:11:32;134.72;;;129.03;;
73852;SDS011;62191;51.548;5.688;2022-12-18T11:14:03;127.87;;;122.77;;
73852;SDS011;62191;51.548;5.688;2022-12-18T11:16:43;131.50;;;126.07;;
73852;SDS011;62191;51.548;5.688;2022-12-18T11:21:41;126.67;;;121.57;;
73852;SDS011;62191;51.548;5.688;2022-12-18T11:26:46;131.03;;;125.13;;
73852;SDS011;62191;51.548;5.688;2022-12-18T11:29:17;139.33;;;133.73;;
73852;SDS011;62191;51.548;5.688;2022-12-18T11:31:46;130.90;;;125.20;;
73852;SDS011;62191;51.548;5.688;2022-12-18T11:34:19;131.57;;;126.23;;
73852;SDS011;62191;51.548;5.688;2022-12-18T11:36:47;127.43;;;121.93;;
73852;SDS011;62191;51.548;5.688;2022-12-18T11:42:12;136.70;;;131.00;;
73852;SDS011;62191;51.548;5.688;2022-12-18T11:47:31;135.07;;;129.53;;
73852;SDS011;62191;51.548;5.688;2022-12-18T11:50:17;139.07;;;133.13;;
73852;SDS011;62191;51.548;5.688;2022-12-18T11:52:41;155.63;;;149.47;;
73852;SDS011;62191;51.548;5.688;2022-12-18T11:55:12;138.97;;;133.27;;
73852;SDS011;62191;51.548;5.688;2022-12-18T11:57:47;147.13;;;141.20;;
73852;SDS011;62191;51.548;5.688;2022-12-18T12:00:20;148.10;;;142.13;;
73852;SDS011;62191;51.548;5.688;2022-12-18T12:05:27;167.07;;;160.17;;
73852;SDS011;62191;51.548;5.688;2022-12-18T12:10:56;165.23;;;158.43;;
73852;SDS011;62191;51.548;5.688;2022-12-18T12:13:25;144.60;;;138.87;;
73852;SDS011;62191;51.548;5.688;2022-12-18T12:21:28;162.60;;;156.13;;
73852;SDS011;62191;51.548;5.688;2022-12-18T12:40:06;150.33;;;144.43;;
73852;SDS011;62191;51.548;5.688;2022-12-18T12:42:41;171.50;;;163.93;;
73852;SDS011;62191;51.548;5.688;2022-12-18T12:45:34;155.37;;;148.50;;
73852;SDS011;62191;51.548;5.688;2022-12-18T12:48:07;153.77;;;147.50;;
73852;SDS011;62191;51.548;5.688;2022-12-18T12:50:36;166.27;;;159.30;;
73852;SDS011;62191;51.548;5.688;2022-12-18T12:53:05;173.10;;;166.30;;
73852;SDS011;62191;51.548;5.688;2022-12-18T12:55:34;162.13;;;155.47;;
73852;SDS011;62191;51.548;5.688;2022-12-18T12:58:14;178.60;;;171.43;;
73852;SDS011;62191;51.548;5.688;2022-12-18T13:01:08;155.93;;;149.67;;
73852;SDS011;62191;51.548;5.688;2022-12-18T13:06:00;156.67;;;150.40;;
73852;SDS011;62191;51.548;5.688;2022-12-18T13:08:34;160.07;;;153.63;;
73852;SDS011;62191;51.548;5.688;2022-12-18T13:10:58;159.77;;;153.27;;
73852;SDS011;62191;51.548;5.688;2022-12-18T13:13:50;152.37;;;146.17;;
73852;SDS011;62191;51.548;5.688;2022-12-18T13:16:22;166.80;;;159.93;;
73852;SDS011;62191;51.548;5.688;2022-12-18T13:18:56;140.17;;;134.50;;
73852;SDS011;62191;51.548;5.688;2022-12-18T13:21:28;153.10;;;146.50;;
73852;SDS011;62191;51.548;5.688;2022-12-18T13:23:57;145.03;;;138.77;;
73852;SDS011;62191;51.548;5.688;2022-12-18T13:26:43;146.93;;;140.90;;
73852;SDS011;62191;51.548;5.688;2022-12-18T13:29:10;144.03;;;138.23;;
73852;SDS011;62191;51.548;5.688;2022-12-18T13:36:47;142.87;;;136.97;;
73852;SDS011;62191;51.548;5.688;2022-12-18T13:41:52;144.37;;;138.23;;
73852;SDS011;62191;51.548;5.688;2022-12-18T13:44:34;140.43;;;134.43;;
73852;SDS011;62191;51.548;5.688;2022-12-18T13:50:21;139.50;;;133.93;;
73852;SDS011;62191;51.548;5.688;2022-12-18T13:52:54;132.23;;;126.63;;
73852;SDS011;62191;51.548;5.688;2022-12-18T13:55:21;141.10;;;135.53;;
73852;SDS011;62191;51.548;5.688;2022-12-18T13:57:49;151.50;;;145.30;;
73852;SDS011;62191;51.548;5.688;2022-12-18T14:02:50;147.35;;;140.88;;
73852;SDS011;62191;51.548;5.688;2022-12-18T14:05:25;156.90;;;150.43;;
73852;SDS011;62191;51.548;5.688;2022-12-18T14:08:07;144.13;;;138.13;;
73852;SDS011;62191;51.548;5.688;2022-12-18T14:10:35;149.70;;;143.53;;
73852;SDS011;62191;51.548;5.688;2022-12-18T14:13:05;155.53;;;148.90;;
73852;SDS011;62191;51.548;5.688;2022-12-18T14:15:39;147.90;;;142.07;;
73852;SDS011;62191;51.548;5.688;2022-12-18T14:18:24;154.70;;;147.90;;
73852;SDS011;62191;51.548;5.688;2022-12-18T14:23:37;123.13;;;117.87;;
73852;SDS011;62191;51.548;5.688;2022-12-18T14:29:00;134.57;;;129.30;;
73852;SDS011;62191;51.548;5.688;2022-12-18T14:31:27;139.00;;;133.37;;
73852;SDS011;62191;51.548;5.688;2022-12-18T14:33:56;147.57;;;141.20;;
73852;SDS011;62191;51.548;5.688;2022-12-18T14:36:24;158.03;;;151.20;;
73852;SDS011;62191;51.548;5.688;2022-12-18T14:38:56;145.43;;;139.30;;
73852;SDS011;62191;51.548;5.688;2022-12-18T14:41:24;157.13;;;150.43;;
73852;SDS011;62191;51.548;5.688;2022-12-18T14:43:54;153.70;;;147.23;;
73852;SDS011;62191;51.548;5.688;2022-12-18T14:46:37;155.53;;;149.07;;
73852;SDS011;62191;51.548;5.688;2022-12-18T14:49:21;144.33;;;138.60;;
73852;SDS011;62191;51.548;5.688;2022-12-18T14:52:04;134.67;;;129.10;;
73852;SDS011;62191;51.548;5.688;2022-12-18T14:54:29;142.93;;;137.00;;
73852;SDS011;62191;51.548;5.688;2022-12-18T14:59:30;145.47;;;139.27;;
73852;SDS011;62191;51.548;5.688;2022-12-18T15:04:46;137.10;;;131.30;;
73852;SDS011;62191;51.548;5.688;2022-12-18T15:07:15;150.13;;;143.97;;
73852;SDS011;62191;51.548;5.688;2022-12-18T15:12:49;131.03;;;125.50;;
73852;SDS011;62191;51.548;5.688;2022-12-18T15:23:18;134.13;;;128.37;;
73852;SDS011;62191;51.548;5.688;2022-12-18T15:28:26;135.50;;;130.00;;
73852;SDS011;62191;51.548;5.688;2022-12-18T15:33:43;146.93;;;140.97;;
73852;SDS011;62191;51.548;5.688;2022-12-18T15:36:12;142.53;;;136.67;;
73852;SDS011;62191;51.548;5.688;2022-12-18T15:38:41;136.83;;;131.07;;
73852;SDS011;62191;51.548;5.688;2022-12-18T15:41:13;143.17;;;137.07;;
73852;SDS011;62191;51.548;5.688;2022-12-18T15:43:41;144.33;;;138.37;;
73852;SDS011;62191;51.548;5.688;2022-12-18T15:46:15;140.30;;;134.50;;
73852;SDS011;62191;51.548;5.688;2022-12-18T15:48:39;150.07;;;144.03;;
73852;SDS011;62191;51.548;5.688;2022-12-18T15:53:58;136.10;;;130.60;;
73852;SDS011;62191;51.548;5.688;2022-12-18T15:56:29;136.27;;;130.57;;
73852;SDS011;62191;51.548;5.688;2022-12-18T15:59:15;135.73;;;129.63;;
73852;SDS011;62191;51.548;5.688;2022-12-18T16:01:47;135.13;;;129.10;;
73852;SDS011;62191;51.548;5.688;2022-12-18T16:04:17;145.37;;;139.37;;
73852;SDS011;62191;51.548;5.688;2022-12-18T16:06:46;139.83;;;133.63;;
73852;SDS011;62191;51.548;5.688;2022-12-18T16:09:14;152.73;;;146.43;;
73852;SDS011;62191;51.548;5.688;2022-12-18T16:11:42;142.63;;;136.90;;
73852;SDS011;62191;51.548;5.688;2022-12-18T16:14:24;137.87;;;132.37;;
73852;SDS011;62191;51.548;5.688;2022-12-18T16:17:05;137.23;;;131.40;;
73852;SDS011;62191;51.548;5.688;2022-12-18T16:19:28;144.93;;;139.07;;
73852;SDS011;62191;51.548;5.688;2022-12-18T16:21:56;148.33;;;142.23;;
73852;SDS011;62191;51.548;5.688;2022-12-18T16:24:28;143.23;;;137.23;;